PWSweather.com
Personal Weather Stations
Station Observations
UPSTATEWEATHER
Silver Leaf, Greer, SC 29650

Silver LeafGreer, SC 29650

Lat: 34.8955792, Lon: -82.2868211

Elevation: 875

Station Type: Davis Vantage Vue

https://www.upstateweather.com

High Low Average
Temperature 91.1°F32.8°C 69.8°F21.0°C 77.2°F25.1°C
Dew Point 77.6°F25.3°C 68.3°F20.2°C 72.4°F22.4°C
Winds 3.5 mph 5.6 kmh Calm Calm Calm NCalm N
Wind Gusts 4.6 mph7.4 kmh -- --
Humidity 98% 61% 86%
Pressure 30.03 in1016.9 mb 29.97 in1014.9 mb -
Precipitation 0.00 in0.0 mm - -
Hour Temp Dew Point Humidity Winds Wind Gusts Pressure Precip Precip Rate Daily Precip Total
12:00 AM 73.8°F23.2°C 70.4°F21.3°C 89% Calm Calm -- 30.00 in1015.9 mb - 0.00 in0.0 mm 0.00 in0.0 mm
12:15 AM 73.6°F23.1°C 70.5°F21.4°C 90% Calm Calm -- 30.00 in1015.9 mb - 0.00 in0.0 mm 0.00 in0.0 mm
12:30 AM 73.3°F22.9°C 70.2°F21.2°C 90% Calm Calm -- 30.01 in1016.3 mb - 0.00 in0.0 mm 0.00 in0.0 mm
12:45 AM 73.1°F22.8°C 70.3°F21.3°C 91% Calm Calm -- 30.00 in1015.9 mb - 0.00 in0.0 mm 0.00 in0.0 mm
01:00 AM 72.7°F22.6°C 70.2°F21.2°C 92% Calm Calm -- 30.00 in1015.9 mb - 0.00 in0.0 mm 0.00 in0.0 mm
01:15 AM 72.6°F22.6°C 70.1°F21.2°C 92% Calm Calm -- 30.00 in1015.9 mb - 0.00 in0.0 mm 0.00 in0.0 mm
01:30 AM 72.2°F22.3°C 69.7°F20.9°C 92% Calm Calm -- 30.00 in1015.9 mb - 0.00 in0.0 mm 0.00 in0.0 mm
01:45 AM 72.1°F22.3°C 70.0°F21.1°C 93% Calm Calm -- 30.00 in1015.9 mb - 0.00 in0.0 mm 0.00 in0.0 mm
02:00 AM 72.2°F22.3°C 70.1°F21.2°C 93% Calm Calm -- 29.99 in1015.6 mb - 0.00 in0.0 mm 0.00 in0.0 mm
02:15 AM 71.8°F22.1°C 69.7°F20.9°C 93% Calm Calm -- 30.00 in1015.9 mb - 0.00 in0.0 mm 0.00 in0.0 mm
02:30 AM 71.4°F21.9°C 69.6°F20.9°C 94% Calm Calm -- 30.00 in1015.9 mb - 0.00 in0.0 mm 0.00 in0.0 mm
02:45 AM 71.4°F21.9°C 69.6°F20.9°C 94% Calm Calm -- 29.99 in1015.6 mb - 0.00 in0.0 mm 0.00 in0.0 mm
03:00 AM 71.4°F21.9°C 69.6°F20.9°C 94% Calm Calm -- 29.99 in1015.6 mb - 0.00 in0.0 mm 0.00 in0.0 mm
03:15 AM 71.4°F21.9°C 69.6°F20.9°C 94% Calm Calm -- 29.99 in1015.6 mb - 0.00 in0.0 mm 0.00 in0.0 mm
03:30 AM 71.2°F21.8°C 69.4°F20.8°C 94% Calm Calm -- 29.99 in1015.6 mb - 0.00 in0.0 mm 0.00 in0.0 mm
03:45 AM 71.1°F21.7°C 69.3°F20.7°C 94% Calm Calm -- 29.98 in1015.2 mb - 0.00 in0.0 mm 0.00 in0.0 mm
04:00 AM 70.9°F21.6°C 69.1°F20.6°C 94% Calm Calm -- 29.98 in1015.2 mb - 0.00 in0.0 mm 0.00 in0.0 mm
04:15 AM 70.8°F21.6°C 69.3°F20.7°C 95% Calm Calm -- 29.98 in1015.2 mb - 0.00 in0.0 mm 0.00 in0.0 mm
04:30 AM 70.7°F21.5°C 69.2°F20.7°C 95% Calm Calm -- 29.98 in1015.2 mb - 0.00 in0.0 mm 0.00 in0.0 mm
04:45 AM 70.7°F21.5°C 69.2°F20.7°C 95% Calm Calm -- 29.98 in1015.2 mb - 0.00 in0.0 mm 0.00 in0.0 mm
05:00 AM 70.6°F21.4°C 69.1°F20.6°C 95% Calm Calm -- 29.98 in1015.2 mb - 0.00 in0.0 mm 0.00 in0.0 mm
05:15 AM 70.6°F21.4°C 69.1°F20.6°C 95% Calm Calm -- 29.99 in1015.6 mb - 0.00 in0.0 mm 0.00 in0.0 mm
05:30 AM 70.5°F21.4°C 69.0°F20.6°C 95% Calm Calm -- 29.99 in1015.6 mb - 0.00 in0.0 mm 0.00 in0.0 mm
05:45 AM 70.1°F21.2°C 68.6°F20.3°C 95% Calm Calm -- 29.99 in1015.6 mb - 0.00 in0.0 mm 0.00 in0.0 mm
06:00 AM 69.9°F21.1°C 68.4°F20.2°C 95% Calm Calm -- 29.99 in1015.6 mb - 0.00 in0.0 mm 0.00 in0.0 mm
06:15 AM 69.8°F21.0°C 68.3°F20.2°C 95% Calm Calm -- 29.99 in1015.6 mb - 0.00 in0.0 mm 0.00 in0.0 mm
06:30 AM 69.8°F21.0°C 68.3°F20.2°C 95% Calm Calm -- 29.99 in1015.6 mb - 0.00 in0.0 mm 0.00 in0.0 mm
06:45 AM 70.1°F21.2°C 68.6°F20.3°C 95% Calm Calm -- 29.99 in1015.6 mb - 0.00 in0.0 mm 0.00 in0.0 mm
07:00 AM 70.6°F21.4°C 69.1°F20.6°C 95% Calm Calm -- 30.00 in1015.9 mb - 0.00 in0.0 mm 0.00 in0.0 mm
07:15 AM 71.1°F21.7°C 69.6°F20.9°C 95% Calm Calm -- 30.00 in1015.9 mb - 0.00 in0.0 mm 0.00 in0.0 mm
07:30 AM 71.8°F22.1°C 70.3°F21.3°C 95% Calm Calm -- 30.01 in1016.3 mb - 0.00 in0.0 mm 0.00 in0.0 mm
07:45 AM 72.8°F22.7°C 71.2°F21.8°C 95% Calm Calm -- 30.01 in1016.3 mb - 0.00 in0.0 mm 0.00 in0.0 mm
08:00 AM 74.2°F23.4°C 72.1°F22.3°C 93% Calm Calm -- 30.00 in1015.9 mb - 0.00 in0.0 mm 0.00 in0.0 mm
08:15 AM 76.3°F24.6°C 73.5°F23.1°C 91% Calm Calm -- 30.00 in1015.9 mb - 0.00 in0.0 mm 0.00 in0.0 mm
08:30 AM 78.3°F25.7°C 73.8°F23.2°C 86% Calm Calm -- 30.01 in1016.3 mb - 0.00 in0.0 mm 0.00 in0.0 mm
08:45 AM 79.3°F26.3°C 74.4°F23.6°C 85% Calm Calm -- 30.01 in1016.3 mb - 0.00 in0.0 mm 0.00 in0.0 mm
09:00 AM 81.1°F27.3°C 75.8°F24.3°C 84% Calm Calm -- 30.01 in1016.3 mb - 0.00 in0.0 mm 0.00 in0.0 mm
09:15 AM 82.1°F27.8°C 74.5°F23.6°C 78% 1.1 mph N1.8 kmh N 2.3 mph3.7 kmh 30.02 in1016.6 mb - 0.00 in0.0 mm 0.00 in0.0 mm
09:30 AM 82.9°F28.3°C 74.9°F23.8°C 77% Calm Calm -- 30.02 in1016.6 mb - 0.00 in0.0 mm 0.00 in0.0 mm
09:45 AM 84.2°F29.0°C 76.5°F24.7°C 78% Calm Calm -- 30.02 in1016.6 mb - 0.00 in0.0 mm 0.00 in0.0 mm
10:00 AM 85.1°F29.5°C 75.5°F24.2°C 73% Calm Calm 1.1 mph1.8 kmh 30.02 in1016.6 mb - 0.00 in0.0 mm 0.00 in0.0 mm
10:15 AM 85.6°F29.8°C 76.0°F24.4°C 73% Calm Calm -- 30.02 in1016.6 mb - 0.00 in0.0 mm 0.00 in0.0 mm
10:30 AM 86.3°F30.2°C 76.6°F24.8°C 73% Calm Calm 2.3 mph3.7 kmh 30.03 in1016.9 mb - 0.00 in0.0 mm 0.00 in0.0 mm
10:45 AM 87.3°F30.7°C 77.2°F25.1°C 72% Calm Calm -- 30.03 in1016.9 mb - 0.00 in0.0 mm 0.00 in0.0 mm
11:00 AM 88.0°F31.1°C 77.0°F25.0°C 70% 1.1 mph N1.8 kmh N 2.3 mph3.7 kmh 30.03 in1016.9 mb - 0.00 in0.0 mm 0.00 in0.0 mm
11:15 AM 88.5°F31.4°C 76.6°F24.8°C 68% 1.1 mph N1.8 kmh N 1.1 mph1.8 kmh 30.03 in1016.9 mb - 0.00 in0.0 mm 0.00 in0.0 mm
11:30 AM 89.0°F31.7°C 77.5°F25.3°C 69% Calm Calm -- 30.02 in1016.6 mb - 0.00 in0.0 mm 0.00 in0.0 mm
11:45 AM 89.4°F31.9°C 77.0°F25.0°C 67% Calm Calm 1.1 mph1.8 kmh 30.02 in1016.6 mb - 0.00 in0.0 mm 0.00 in0.0 mm
12:00 PM 89.7°F32.1°C 77.3°F25.2°C 67% 1.1 mph N1.8 kmh N -- 30.02 in1016.6 mb - 0.00 in0.0 mm 0.00 in0.0 mm
12:15 PM 90.0°F32.2°C 76.6°F24.8°C 65% Calm Calm 1.1 mph1.8 kmh 30.01 in1016.3 mb - 0.00 in0.0 mm 0.00 in0.0 mm
12:30 PM 91.1°F32.8°C 75.8°F24.3°C 61% 3.5 mph N5.6 kmh N 4.6 mph7.4 kmh 30.00 in1015.9 mb - 0.00 in0.0 mm 0.00 in0.0 mm
12:45 PM 91.1°F32.8°C 75.8°F24.3°C 61% 2.3 mph N3.7 kmh N 3.5 mph5.6 kmh 30.00 in1015.9 mb - 0.00 in0.0 mm 0.00 in0.0 mm
01:00 PM 89.7°F32.1°C 75.4°F24.1°C 63% Calm Calm -- 30.00 in1015.9 mb - 0.00 in0.0 mm 0.00 in0.0 mm
01:15 PM 88.4°F31.3°C 76.5°F24.7°C 68% Calm Calm -- 30.00 in1015.9 mb - 0.00 in0.0 mm 0.00 in0.0 mm
01:30 PM 87.0°F30.6°C 76.9°F24.9°C 72% Calm Calm -- 30.00 in1015.9 mb - 0.00 in0.0 mm 0.00 in0.0 mm
01:45 PM 86.1°F30.1°C 76.8°F24.9°C 74% Calm Calm -- 29.99 in1015.6 mb - 0.00 in0.0 mm 0.00 in0.0 mm
02:00 PM 85.6°F29.8°C 77.6°F25.3°C 77% Calm Calm -- 29.98 in1015.2 mb - 0.00 in0.0 mm 0.00 in0.0 mm
02:15 PM 88.3°F31.3°C 73.1°F22.8°C 61% Calm Calm -- 29.98 in1015.2 mb - 0.00 in0.0 mm 0.00 in0.0 mm
02:30 PM 87.7°F30.9°C 75.3°F24.1°C 67% Calm Calm -- 29.97 in1014.9 mb - 0.00 in0.0 mm 0.00 in0.0 mm
02:45 PM 87.0°F30.6°C 75.2°F24.0°C 68% Calm Calm -- 29.97 in1014.9 mb - 0.00 in0.0 mm 0.00 in0.0 mm
08:15 PM 83.9°F28.8°C 72.2°F22.3°C 68% 1.2 mph N1.9 kmh N 1.2 mph1.9 kmh 30.00 in1015.9 mb - 0.00 in0.0 mm 0.00 in0.0 mm
08:30 PM 75.3°F24.1°C 73.4°F23.0°C 94% Calm Calm -- 30.01 in1016.3 mb - 0.00 in0.0 mm 0.00 in0.0 mm
08:45 PM 74.2°F23.4°C 73.0°F22.8°C 96% Calm Calm -- 29.99 in1015.6 mb - 0.00 in0.0 mm 0.00 in0.0 mm
09:00 PM 73.4°F23.0°C 72.2°F22.3°C 96% Calm Calm -- 29.99 in1015.6 mb - 0.00 in0.0 mm 0.00 in0.0 mm
09:15 PM 73.2°F22.9°C 72.0°F22.2°C 96% Calm Calm -- 29.99 in1015.6 mb - 0.00 in0.0 mm 0.00 in0.0 mm
09:30 PM 73.2°F22.9°C 72.3°F22.4°C 97% Calm Calm -- 29.99 in1015.6 mb - 0.00 in0.0 mm 0.00 in0.0 mm
09:45 PM 72.8°F22.7°C 71.9°F22.2°C 97% Calm Calm -- 30.00 in1015.9 mb - 0.00 in0.0 mm 0.00 in0.0 mm
10:00 PM 72.8°F22.7°C 71.9°F22.2°C 97% Calm Calm -- 30.00 in1015.9 mb - 0.00 in0.0 mm 0.00 in0.0 mm
10:15 PM 72.7°F22.6°C 71.8°F22.1°C 97% Calm Calm -- 30.01 in1016.3 mb - 0.00 in0.0 mm 0.00 in0.0 mm
10:30 PM 72.4°F22.4°C 71.5°F21.9°C 97% Calm Calm -- 30.01 in1016.3 mb - 0.00 in0.0 mm 0.00 in0.0 mm
10:45 PM 72.5°F22.5°C 71.6°F22.0°C 97% Calm Calm -- 30.01 in1016.3 mb - 0.00 in0.0 mm 0.00 in0.0 mm
11:00 PM 72.4°F22.4°C 71.5°F21.9°C 97% Calm Calm -- 30.01 in1016.3 mb - 0.00 in0.0 mm 0.00 in0.0 mm
11:15 PM 72.4°F22.4°C 71.8°F22.1°C 98% Calm Calm -- 30.00 in1015.9 mb - 0.00 in0.0 mm 0.00 in0.0 mm
11:30 PM 72.3°F22.4°C 71.7°F22.1°C 98% Calm Calm -- 30.00 in1015.9 mb - 0.00 in0.0 mm 0.00 in0.0 mm
11:45 PM 72.2°F22.3°C 71.6°F22.0°C 98% Calm Calm -- 30.01 in1016.3 mb - 0.00 in0.0 mm 0.00 in0.0 mm